Time;durP1;ratioP1;P1;durP2;ratioP2;P2;SDS_P1;SDS_P2;PMS_P1;PMS_P2;Temp;Humidity;BMP_temperature;BMP_pressure;BME280_temperature;BME280_humidity;BME280_pressure;Samples;Min_cycle;Max_cycle;Signal;HPM_P1;HPM_P2
2023/12/18 00:00:13;;;;;;;38.95;17.35;;;;;;;;;;5031368;28;20489;-72
2023/12/18 00:02:39;;;;;;;36.28;16.45;;;;;;;;;;5031331;28;20041;-72
2023/12/18 00:05:06;;;;;;;37.00;16.25;;;;;;;;;;5033028;28;20479;-72
2023/12/18 00:07:32;;;;;;;33.03;16.52;;;;;;;;;;5031359;28;20052;-72
2023/12/18 00:09:58;;;;;;;33.55;15.63;;;;;;;;;;5030928;28;20033;-72
2023/12/18 00:12:24;;;;;;;33.28;16.70;;;;;;;;;;5030318;28;20037;-72
2023/12/18 00:14:50;;;;;;;35.65;15.57;;;;;;;;;;5031027;28;20115;-72
2023/12/18 00:17:15;;;;;;;33.50;16.67;;;;;;;;;;5029646;28;20488;-72
2023/12/18 00:19:41;;;;;;;35.60;16.83;;;;;;;;;;5037267;28;20040;-72
2023/12/18 00:22:07;;;;;;;37.45;16.98;;;;;;;;;;5030799;28;20033;-72
2023/12/18 00:24:33;;;;;;;37.63;16.25;;;;;;;;;;5031275;28;20048;-72
2023/12/18 00:26:59;;;;;;;34.65;17.63;;;;;;;;;;5031045;28;20445;-72
2023/12/18 00:29:25;;;;;;;33.83;18.40;;;;;;;;;;5029561;28;20096;-72
2023/12/18 00:31:51;;;;;;;33.85;17.35;;;;;;;;;;5033666;28;20033;-72
2023/12/18 00:34:17;;;;;;;37.25;17.33;;;;;;;;;;5033692;28;20120;-72
2023/12/18 00:36:44;;;;;;;35.10;16.83;;;;;;;;;;5031124;28;20113;-72
2023/12/18 00:39:11;;;;;;;36.33;15.93;;;;;;;;;;5030318;28;20068;-72
2023/12/18 00:41:36;;;;;;;37.65;16.95;;;;;;;;;;5031019;28;20080;-72
2023/12/18 00:44:03;;;;;;;34.15;17.23;;;;;;;;;;5030752;28;20073;-72
2023/12/18 00:46:29;;;;;;;38.35;17.05;;;;;;;;;;5030619;28;20095;-72
2023/12/18 00:48:55;;;;;;;32.50;16.27;;;;;;;;;;5030631;28;20120;-72
2023/12/18 00:51:21;;;;;;;38.22;16.35;;;;;;;;;;5029598;28;20128;-72
2023/12/18 00:53:47;;;;;;;39.42;16.50;;;;;;;;;;5030898;28;20037;-72
2023/12/18 00:56:13;;;;;;;35.42;17.40;;;;;;;;;;5029921;28;20571;-72
2023/12/18 00:58:39;;;;;;;37.13;17.23;;;;;;;;;;5030306;28;20045;-71
2023/12/18 01:01:05;;;;;;;33.85;17.20;;;;;;;;;;5031920;28;20053;-72
2023/12/18 01:03:31;;;;;;;34.63;17.35;;;;;;;;;;5031078;28;20049;-72
2023/12/18 01:05:57;;;;;;;35.95;17.85;;;;;;;;;;5030300;28;20037;-72
2023/12/18 01:08:23;;;;;;;39.33;17.92;;;;;;;;;;5030765;28;20079;-72
2023/12/18 01:10:49;;;;;;;34.28;16.67;;;;;;;;;;5030410;28;20395;-72
2023/12/18 01:13:15;;;;;;;33.72;17.27;;;;;;;;;;5030553;28;20112;-72
2023/12/18 01:15:41;;;;;;;34.25;18.02;;;;;;;;;;5030445;28;20435;-72
2023/12/18 01:18:07;;;;;;;39.35;17.20;;;;;;;;;;5032167;28;20032;-72
2023/12/18 01:20:33;;;;;;;31.55;17.48;;;;;;;;;;5027046;28;20034;-72
2023/12/18 01:22:59;;;;;;;39.47;17.27;;;;;;;;;;5030761;28;20119;-73
2023/12/18 01:25:25;;;;;;;30.80;16.05;;;;;;;;;;5030867;28;20415;-72
2023/12/18 01:27:51;;;;;;;38.45;18.50;;;;;;;;;;5028904;28;20130;-72
2023/12/18 01:30:17;;;;;;;36.28;17.83;;;;;;;;;;5031665;28;20083;-72
2023/12/18 01:32:43;;;;;;;35.47;17.45;;;;;;;;;;5034314;28;20067;-72
2023/12/18 01:35:09;;;;;;;34.58;17.10;;;;;;;;;;5034781;28;20638;-72
2023/12/18 01:37:35;;;;;;;36.60;17.85;;;;;;;;;;5033702;28;20053;-72
2023/12/18 01:40:01;;;;;;;35.47;16.77;;;;;;;;;;5033818;28;20060;-72
2023/12/18 01:42:27;;;;;;;40.75;17.83;;;;;;;;;;5033950;28;20037;-72
2023/12/18 01:44:53;;;;;;;32.63;14.93;;;;;;;;;;5032679;28;20211;-71
2023/12/18 01:47:19;;;;;;;32.03;16.95;;;;;;;;;;5033525;28;20045;-72
2023/12/18 01:49:46;;;;;;;36.65;17.52;;;;;;;;;;5034398;28;20551;-72
2023/12/18 01:52:12;;;;;;;34.13;17.02;;;;;;;;;;5034230;28;20112;-72
2023/12/18 01:54:38;;;;;;;32.38;16.88;;;;;;;;;;5033292;28;20577;-72
2023/12/18 01:57:05;;;;;;;35.30;17.38;;;;;;;;;;5033659;28;20073;-72
2023/12/18 01:59:31;;;;;;;30.02;17.35;;;;;;;;;;5033640;28;20037;-72
2023/12/18 02:01:57;;;;;;;36.05;16.35;;;;;;;;;;5032767;28;20507;-72
2023/12/18 02:04:23;;;;;;;34.50;17.02;;;;;;;;;;5034027;28;20545;-72
2023/12/18 02:06:49;;;;;;;39.17;18.80;;;;;;;;;;5033656;28;20045;-72
2023/12/18 02:09:16;;;;;;;29.40;17.52;;;;;;;;;;5032877;28;20045;-72
2023/12/18 02:11:45;;;;;;;38.97;17.98;;;;;;;;;;5031818;28;20038;-72
2023/12/18 02:14:12;;;;;;;34.65;17.70;;;;;;;;;;5033916;28;20052;-72
2023/12/18 02:16:38;;;;;;;30.92;17.48;;;;;;;;;;5033496;28;20045;-72
2023/12/18 02:19:04;;;;;;;42.67;19.77;;;;;;;;;;5029031;28;20047;-72
2023/12/18 02:21:30;;;;;;;39.55;18.33;;;;;;;;;;5032929;28;20037;-72
2023/12/18 02:23:56;;;;;;;41.20;20.00;;;;;;;;;;5033344;28;20491;-72
2023/12/18 02:26:22;;;;;;;39.15;19.05;;;;;;;;;;5033386;28;20045;-72
2023/12/18 02:28:48;;;;;;;37.17;18.98;;;;;;;;;;5032876;28;20043;-72
2023/12/18 02:31:15;;;;;;;41.70;19.05;;;;;;;;;;5033690;28;20033;-72
2023/12/18 02:33:41;;;;;;;36.88;18.95;;;;;;;;;;5032754;28;20124;-72
2023/12/18 02:36:07;;;;;;;33.65;17.23;;;;;;;;;;5033101;28;20152;-72
2023/12/18 02:38:33;;;;;;;37.97;19.58;;;;;;;;;;5031758;28;20045;-72
2023/12/18 02:40:59;;;;;;;35.47;19.88;;;;;;;;;;5033206;28;20499;-72
2023/12/18 02:43:25;;;;;;;42.90;19.17;;;;;;;;;;5031450;28;20045;-72
2023/12/18 02:45:51;;;;;;;37.42;18.95;;;;;;;;;;5033773;28;20048;-72
2023/12/18 02:48:17;;;;;;;41.42;19.48;;;;;;;;;;5032961;28;20038;-72
2023/12/18 02:50:43;;;;;;;40.15;19.88;;;;;;;;;;5032971;28;20041;-72
2023/12/18 02:53:09;;;;;;;39.58;19.13;;;;;;;;;;5032960;28;20037;-72
2023/12/18 02:55:35;;;;;;;38.60;19.08;;;;;;;;;;5033167;28;20095;-72
2023/12/18 02:58:02;;;;;;;38.70;19.75;;;;;;;;;;5032237;28;20045;-72
2023/12/18 03:00:28;;;;;;;37.60;19.58;;;;;;;;;;5030927;28;20068;-72
2023/12/18 03:02:54;;;;;;;39.15;19.90;;;;;;;;;;5033389;28;20046;-72
2023/12/18 03:05:20;;;;;;;39.80;19.38;;;;;;;;;;5032401;28;20045;-72
2023/12/18 03:07:46;;;;;;;39.95;19.90;;;;;;;;;;5031453;28;20173;-72
2023/12/18 03:10:12;;;;;;;39.88;19.50;;;;;;;;;;5031454;28;20049;-72
2023/12/18 03:12:38;;;;;;;41.40;19.25;;;;;;;;;;5032402;28;20120;-72
2023/12/18 03:15:04;;;;;;;37.30;19.60;;;;;;;;;;5032592;28;20068;-72
2023/12/18 03:17:30;;;;;;;35.72;19.17;;;;;;;;;;5031665;28;20108;-72
2023/12/18 03:19:57;;;;;;;40.20;19.42;;;;;;;;;;5032462;28;20079;-72
2023/12/18 03:22:22;;;;;;;40.70;19.52;;;;;;;;;;5033339;28;20076;-72
2023/12/18 03:24:48;;;;;;;34.92;19.50;;;;;;;;;;5032791;28;20586;-72
2023/12/18 03:27:14;;;;;;;39.28;18.60;;;;;;;;;;5032349;28;20041;-72
2023/12/18 03:29:40;;;;;;;35.72;18.73;;;;;;;;;;5030679;28;20442;-72
2023/12/18 03:32:07;;;;;;;37.50;19.27;;;;;;;;;;5032795;28;20029;-73
2023/12/18 03:34:33;;;;;;;36.15;19.25;;;;;;;;;;5031995;28;20116;-73
2023/12/18 03:36:59;;;;;;;36.65;19.55;;;;;;;;;;5032036;28;20096;-72
2023/12/18 03:39:25;;;;;;;38.70;19.10;;;;;;;;;;5031589;28;20443;-72
2023/12/18 03:41:51;;;;;;;35.45;18.90;;;;;;;;;;5032047;28;20045;-72
2023/12/18 03:44:17;;;;;;;35.58;18.65;;;;;;;;;;5031839;28;20038;-72
2023/12/18 03:46:43;;;;;;;36.17;17.83;;;;;;;;;;5032056;28;20124;-72
2023/12/18 03:49:09;;;;;;;36.92;18.33;;;;;;;;;;5030777;28;20128;-72
2023/12/18 03:51:35;;;;;;;36.67;18.08;;;;;;;;;;5031325;28;20068;-72
2023/12/18 03:54:01;;;;;;;32.05;17.38;;;;;;;;;;5031204;28;20045;-72
2023/12/18 03:56:27;;;;;;;33.00;17.80;;;;;;;;;;5031248;28;20116;-72
2023/12/18 03:58:53;;;;;;;36.03;18.27;;;;;;;;;;5030972;28;20045;-72
2023/12/18 04:01:19;;;;;;;40.80;18.23;;;;;;;;;;5031159;28;20049;-72
2023/12/18 04:03:45;;;;;;;33.78;18.20;;;;;;;;;;5031423;28;20508;-72
2023/12/18 04:06:11;;;;;;;32.38;17.58;;;;;;;;;;5031111;28;20411;-72
2023/12/18 04:08:39;;;;;;;34.13;18.45;;;;;;;;;;5059229;22;20103;-66
2023/12/18 04:11:05;;;;;;;31.92;16.98;;;;;;;;;;5053714;28;20044;-66
2023/12/18 04:13:31;;;;;;;34.60;18.15;;;;;;;;;;5051192;28;20029;-65
2023/12/18 04:15:57;;;;;;;33.70;18.63;;;;;;;;;;5052692;28;20507;-65
2023/12/18 04:18:23;;;;;;;34.28;17.40;;;;;;;;;;5065131;22;20056;-63
2023/12/18 04:20:49;;;;;;;41.58;18.38;;;;;;;;;;5050081;28;20477;-63
2023/12/18 04:23:15;;;;;;;34.47;18.20;;;;;;;;;;5047603;28;20084;-63
2023/12/18 04:25:41;;;;;;;31.50;16.48;;;;;;;;;;5049038;28;20508;-64
2023/12/18 04:28:07;;;;;;;36.13;17.60;;;;;;;;;;5046821;28;20123;-63
2023/12/18 04:30:33;;;;;;;35.08;18.08;;;;;;;;;;5048953;28;20049;-63
2023/12/18 04:32:59;;;;;;;28.52;16.55;;;;;;;;;;5050183;28;20102;-63
2023/12/18 04:35:25;;;;;;;31.17;16.23;;;;;;;;;;5050750;28;20112;-63
2023/12/18 04:37:51;;;;;;;26.92;15.75;;;;;;;;;;5051370;28;20407;-63
2023/12/18 04:40:17;;;;;;;29.00;16.38;;;;;;;;;;5049677;28;20045;-63
2023/12/18 04:42:43;;;;;;;32.40;16.63;;;;;;;;;;5048965;28;20480;-63
2023/12/18 04:45:09;;;;;;;30.10;15.88;;;;;;;;;;5048474;28;20106;-63
2023/12/18 04:47:35;;;;;;;33.42;16.75;;;;;;;;;;5051143;28;20064;-63
2023/12/18 04:50:01;;;;;;;35.85;17.90;;;;;;;;;;5043758;28;20026;-63
2023/12/18 04:52:27;;;;;;;30.20;16.13;;;;;;;;;;5049732;28;20144;-63
2023/12/18 04:54:53;;;;;;;34.85;17.35;;;;;;;;;;5048736;28;20040;-63
2023/12/18 04:57:19;;;;;;;31.00;16.27;;;;;;;;;;5048461;28;20103;-63
2023/12/18 04:59:45;;;;;;;32.85;16.50;;;;;;;;;;5046155;28;20033;-64
2023/12/18 05:02:11;;;;;;;30.88;16.85;;;;;;;;;;5041821;28;20090;-64
2023/12/18 05:04:37;;;;;;;29.52;17.25;;;;;;;;;;5040291;28;20396;-64
2023/12/18 05:07:03;;;;;;;35.45;17.20;;;;;;;;;;5052682;28;20044;-64
2023/12/18 05:09:29;;;;;;;32.83;17.17;;;;;;;;;;5052770;28;20672;-63
2023/12/18 05:11:55;;;;;;;31.05;16.55;;;;;;;;;;5052359;28;20477;-64
2023/12/18 05:14:21;;;;;;;36.95;17.33;;;;;;;;;;5053683;28;20041;-64
2023/12/18 05:16:47;;;;;;;33.15;17.52;;;;;;;;;;5051033;28;20059;-64
2023/12/18 05:19:13;;;;;;;31.80;17.30;;;;;;;;;;5049186;28;20041;-64
2023/12/18 05:21:39;;;;;;;34.30;17.27;;;;;;;;;;5054181;28;20044;-64
2023/12/18 05:24:05;;;;;;;29.58;16.45;;;;;;;;;;5051835;28;20029;-64
2023/12/18 05:26:31;;;;;;;35.03;17.85;;;;;;;;;;5051386;28;20036;-63
2023/12/18 05:28:58;;;;;;;36.28;17.95;;;;;;;;;;5050172;28;20576;-64
2023/12/18 05:31:24;;;;;;;35.05;18.35;;;;;;;;;;5051700;28;20056;-63
2023/12/18 05:33:50;;;;;;;28.95;16.83;;;;;;;;;;5042733;28;20052;-64
2023/12/18 05:36:16;;;;;;;32.35;17.20;;;;;;;;;;5043837;28;20048;-64
2023/12/18 05:38:43;;;;;;;32.08;16.23;;;;;;;;;;5047751;28;20041;-64
2023/12/18 05:41:09;;;;;;;33.08;16.75;;;;;;;;;;5041488;28;20037;-64
2023/12/18 05:43:35;;;;;;;28.13;15.00;;;;;;;;;;5047779;28;20098;-64
2023/12/18 05:46:01;;;;;;;33.45;17.10;;;;;;;;;;5049376;28;20127;-64
2023/12/18 05:48:27;;;;;;;31.30;16.60;;;;;;;;;;5046902;28;20508;-64
2023/12/18 05:50:53;;;;;;;35.40;17.05;;;;;;;;;;5049121;28;20029;-64
2023/12/18 05:53:19;;;;;;;34.25;17.13;;;;;;;;;;5051762;28;20040;-64
2023/12/18 05:55:45;;;;;;;30.90;16.10;;;;;;;;;;5049894;28;20548;-64
2023/12/18 05:58:11;;;;;;;31.25;16.52;;;;;;;;;;5051778;28;20056;-64
2023/12/18 06:00:38;;;;;;;35.90;16.98;;;;;;;;;;5049760;28;20524;-64
2023/12/18 06:03:04;;;;;;;27.90;17.80;;;;;;;;;;5048205;28;20467;-64
2023/12/18 06:05:30;;;;;;;34.55;16.85;;;;;;;;;;5048397;28;20049;-64
2023/12/18 06:07:56;;;;;;;27.48;16.05;;;;;;;;;;5050145;28;20052;-64
2023/12/18 06:10:22;;;;;;;32.50;16.98;;;;;;;;;;5049116;28;20041;-64
2023/12/18 06:12:51;;;;;;;32.58;17.27;;;;;;;;;;5051445;28;20410;-64
2023/12/18 06:15:17;;;;;;;34.08;17.60;;;;;;;;;;5051025;28;20041;-64
2023/12/18 06:17:43;;;;;;;33.40;17.02;;;;;;;;;;5046825;28;20506;-64
2023/12/18 06:20:09;;;;;;;31.15;16.15;;;;;;;;;;5050189;28;20041;-64
2023/12/18 06:22:35;;;;;;;28.80;16.80;;;;;;;;;;5046542;28;20071;-64
2023/12/18 06:25:02;;;;;;;32.08;16.13;;;;;;;;;;5049142;28;20041;-64
2023/12/18 06:27:28;;;;;;;31.67;17.35;;;;;;;;;;5044735;28;20558;-64
2023/12/18 06:29:54;;;;;;;34.20;17.27;;;;;;;;;;5050719;28;20408;-64
2023/12/18 06:32:20;;;;;;;34.08;16.95;;;;;;;;;;5044994;28;20037;-64
2023/12/18 06:34:46;;;;;;;36.22;18.27;;;;;;;;;;5044980;28;20119;-64
2023/12/18 06:37:12;;;;;;;37.45;17.02;;;;;;;;;;5050073;28;20032;-64
2023/12/18 06:39:38;;;;;;;36.38;18.33;;;;;;;;;;5047860;28;20123;-64
2023/12/18 06:42:05;;;;;;;30.83;17.85;;;;;;;;;;5046685;28;20127;-64
2023/12/18 06:44:31;;;;;;;35.83;17.77;;;;;;;;;;5050201;28;20037;-64
2023/12/18 06:46:57;;;;;;;38.25;17.80;;;;;;;;;;5049057;28;20045;-64
2023/12/18 06:49:23;;;;;;;33.72;17.58;;;;;;;;;;5050428;28;20056;-64
2023/12/18 06:51:50;;;;;;;35.83;18.90;;;;;;;;;;5050450;28;20481;-64
2023/12/18 06:54:16;;;;;;;34.05;18.15;;;;;;;;;;5051040;28;20041;-64
2023/12/18 06:56:42;;;;;;;37.90;19.02;;;;;;;;;;5051721;28;20036;-64
2023/12/18 06:59:08;;;;;;;32.72;19.10;;;;;;;;;;5049525;28;20045;-64
2023/12/18 07:01:34;;;;;;;36.08;19.55;;;;;;;;;;5045271;28;20044;-64
2023/12/18 07:04:02;;;;;;;41.08;19.10;;;;;;;;;;5048329;28;20588;-64
2023/12/18 07:06:29;;;;;;;34.20;18.08;;;;;;;;;;5044896;28;20511;-64
2023/12/18 07:08:55;;;;;;;29.15;16.60;;;;;;;;;;5044195;28;20045;-64
2023/12/18 07:11:20;;;;;;;38.35;18.70;;;;;;;;;;5048373;28;20068;-64
2023/12/18 07:13:46;;;;;;;32.80;17.65;;;;;;;;;;5049588;28;20036;-64
2023/12/18 07:16:23;;;;;;;38.13;18.17;;;;;;;;;;5050289;28;20126;-64
2023/12/18 07:18:49;;;;;;;35.45;18.50;;;;;;;;;;5045449;28;20138;-64
2023/12/18 07:21:15;;;;;;;40.53;19.58;;;;;;;;;;5049157;28;20049;-64
2023/12/18 07:23:42;;;;;;;39.30;19.23;;;;;;;;;;5042688;28;20123;-64
2023/12/18 07:26:12;;;;;;;42.05;19.90;;;;;;;;;;5045777;28;20045;-64
2023/12/18 07:28:38;;;;;;;36.03;18.73;;;;;;;;;;5041835;28;20045;-64
2023/12/18 07:31:04;;;;;;;35.70;18.73;;;;;;;;;;5046817;28;20382;-64
2023/12/18 07:33:30;;;;;;;35.40;17.80;;;;;;;;;;5045979;28;20102;-64
2023/12/18 07:35:56;;;;;;;35.10;19.38;;;;;;;;;;5044688;28;20643;-64
2023/12/18 07:38:22;;;;;;;32.53;18.83;;;;;;;;;;5047017;28;20128;-64
2023/12/18 07:40:48;;;;;;;34.83;20.00;;;;;;;;;;5046120;28;20045;-64
2023/12/18 07:43:14;;;;;;;30.23;16.80;;;;;;;;;;5041888;28;20094;-64
2023/12/18 07:45:40;;;;;;;34.00;18.00;;;;;;;;;;5046906;28;20049;-64
2023/12/18 07:48:06;;;;;;;31.75;17.95;;;;;;;;;;5049652;28;20037;-64
2023/12/18 07:50:32;;;;;;;32.35;18.90;;;;;;;;;;5049010;28;20041;-64
2023/12/18 07:52:59;;;;;;;40.13;19.70;;;;;;;;;;5049540;28;20041;-64
2023/12/18 07:55:25;;;;;;;37.05;19.67;;;;;;;;;;5050356;28;20044;-64
2023/12/18 07:57:50;;;;;;;32.78;18.00;;;;;;;;;;5050651;28;20045;-64
2023/12/18 08:00:17;;;;;;;37.30;18.73;;;;;;;;;;5049491;28;20044;-64
2023/12/18 08:02:43;;;;;;;38.78;19.42;;;;;;;;;;5047393;28;20048;-64
2023/12/18 08:05:09;;;;;;;36.35;19.83;;;;;;;;;;5038476;28;20051;-64
2023/12/18 08:07:35;;;;;;;36.85;19.55;;;;;;;;;;5048145;28;20048;-64
2023/12/18 08:10:01;;;;;;;34.67;19.35;;;;;;;;;;5048429;28;20089;-64
2023/12/18 08:12:27;;;;;;;41.42;19.80;;;;;;;;;;5032546;28;20094;-64
2023/12/18 08:14:54;;;;;;;35.10;19.95;;;;;;;;;;5049049;28;20065;-64
2023/12/18 08:17:20;;;;;;;33.67;18.98;;;;;;;;;;5050514;28;20041;-64
2023/12/18 08:19:49;;;;;;;39.53;20.38;;;;;;;;;;5046426;28;20047;-64
2023/12/18 08:22:15;;;;;;;34.65;19.65;;;;;;;;;;5047616;28;20052;-64
2023/12/18 08:24:42;;;;;;;40.10;19.27;;;;;;;;;;5050556;28;20083;-64
2023/12/18 08:27:08;;;;;;;37.15;18.55;;;;;;;;;;5049099;28;20044;-64
2023/12/18 08:29:34;;;;;;;40.83;20.55;;;;;;;;;;5048305;28;20041;-64
2023/12/18 08:32:00;;;;;;;40.50;19.88;;;;;;;;;;5042929;28;20045;-65
2023/12/18 08:34:26;;;;;;;31.40;18.73;;;;;;;;;;5046018;28;20063;-65
2023/12/18 08:36:53;;;;;;;33.65;18.70;;;;;;;;;;5043312;28;20044;-65
2023/12/18 08:39:22;;;;;;;33.38;19.85;;;;;;;;;;5042299;28;20102;-64
2023/12/18 08:41:48;;;;;;;40.95;19.13;;;;;;;;;;5033298;28;20191;-65
2023/12/18 08:44:14;;;;;;;41.80;19.13;;;;;;;;;;5053690;28;20116;-65
2023/12/18 08:46:40;;;;;;;33.78;19.17;;;;;;;;;;5054842;28;20045;-65
2023/12/18 08:49:06;;;;;;;37.03;19.85;;;;;;;;;;5050898;28;21179;-65
2023/12/18 08:51:32;;;;;;;38.50;20.25;;;;;;;;;;5051236;28;20037;-65
2023/12/18 08:53:58;;;;;;;37.25;20.05;;;;;;;;;;5052907;28;20041;-64
2023/12/18 08:56:25;;;;;;;40.45;19.88;;;;;;;;;;5047549;28;20192;-65
2023/12/18 08:58:52;;;;;;;40.88;20.83;;;;;;;;;;5053010;28;20106;-64
2023/12/18 09:01:18;;;;;;;38.25;18.52;;;;;;;;;;5052747;28;20051;-65
2023/12/18 09:03:44;;;;;;;38.30;21.77;;;;;;;;;;5051735;28;20463;-65
2023/12/18 09:06:11;;;;;;;38.20;20.52;;;;;;;;;;5046635;28;20033;-65
2023/12/18 09:08:40;;;;;;;38.53;19.60;;;;;;;;;;5050044;28;20090;-65
2023/12/18 09:11:07;;;;;;;41.72;20.70;;;;;;;;;;5050403;28;20168;-65
2023/12/18 09:13:34;;;;;;;38.35;20.52;;;;;;;;;;5050885;28;20393;-65
2023/12/18 09:16:02;;;;;;;42.20;20.63;;;;;;;;;;5045423;28;20073;-65
2023/12/18 09:18:27;;;;;;;39.05;21.02;;;;;;;;;;5049521;28;20128;-65
2023/12/18 09:20:53;;;;;;;38.97;20.15;;;;;;;;;;5045691;28;20124;-65
2023/12/18 09:23:19;;;;;;;38.95;21.67;;;;;;;;;;5048614;28;20042;-65
2023/12/18 09:25:45;;;;;;;35.83;21.45;;;;;;;;;;5047054;28;20407;-64
2023/12/18 09:28:12;;;;;;;37.90;19.17;;;;;;;;;;5045506;28;20033;-65
2023/12/18 09:30:38;;;;;;;38.05;21.95;;;;;;;;;;5050262;28;20112;-65
2023/12/18 09:33:05;;;;;;;43.00;21.60;;;;;;;;;;5049146;28;20124;-65
2023/12/18 09:35:31;;;;;;;39.90;21.20;;;;;;;;;;5050696;28;20045;-65
2023/12/18 09:37:57;;;;;;;42.40;21.77;;;;;;;;;;5045646;28;20088;-65
2023/12/18 09:40:23;;;;;;;41.08;22.13;;;;;;;;;;5046086;28;20080;-65
2023/12/18 09:42:55;;;;;;;40.05;22.02;;;;;;;;;;5049532;28;20564;-65
2023/12/18 09:45:22;;;;;;;36.58;21.40;;;;;;;;;;5045906;28;20556;-65
2023/12/18 09:47:49;;;;;;;41.13;22.30;;;;;;;;;;5047113;28;20531;-65
2023/12/18 09:50:15;;;;;;;40.47;23.08;;;;;;;;;;5044516;28;20041;-65
2023/12/18 09:52:44;;;;;;;49.80;23.65;;;;;;;;;;5048572;28;20045;-65
2023/12/18 09:55:11;;;;;;;45.50;21.85;;;;;;;;;;5048565;28;20039;-65
2023/12/18 09:57:37;;;;;;;41.08;21.23;;;;;;;;;;5047532;28;20103;-65
2023/12/18 10:00:05;;;;;;;41.63;22.00;;;;;;;;;;5047459;28;20041;-65
2023/12/18 10:02:32;;;;;;;41.17;21.70;;;;;;;;;;5049477;28;20408;-65
2023/12/18 10:04:58;;;;;;;41.60;22.33;;;;;;;;;;5045695;28;20049;-65
2023/12/18 10:07:24;;;;;;;44.05;22.60;;;;;;;;;;5048209;28;20044;-66
2023/12/18 10:09:50;;;;;;;40.53;22.15;;;;;;;;;;5046141;28;20405;-63
2023/12/18 10:12:17;;;;;;;39.95;19.38;;;;;;;;;;5054101;28;20558;-64
2023/12/18 10:14:44;;;;;;;40.33;22.35;;;;;;;;;;5053190;28;20041;-64
2023/12/18 10:19:42;;;;;;;44.28;22.17;;;;;;;;;;5063546;28;20048;-63
2023/12/18 10:22:08;;;;;;;47.77;23.77;;;;;;;;;;5069399;28;20049;-63
2023/12/18 10:24:40;;;;;;;44.05;23.15;;;;;;;;;;5071538;28;20033;-64
2023/12/18 10:27:06;;;;;;;43.38;21.92;;;;;;;;;;5073397;28;20496;-64
2023/12/18 10:29:32;;;;;;;45.63;23.13;;;;;;;;;;5072666;28;20036;-64
2023/12/18 10:31:58;;;;;;;41.83;23.55;;;;;;;;;;5069704;28;20500;-66
2023/12/18 10:34:24;;;;;;;43.45;22.65;;;;;;;;;;5049565;28;20045;-64
2023/12/18 10:36:50;;;;;;;48.85;24.10;;;;;;;;;;5059502;28;20028;-64
2023/12/18 10:39:18;;;;;;;40.28;22.80;;;;;;;;;;5067766;28;20040;-64
2023/12/18 10:41:45;;;;;;;45.83;23.58;;;;;;;;;;5073264;28;20044;-64
2023/12/18 10:44:12;;;;;;;46.97;23.80;;;;;;;;;;5064471;28;20112;-64
2023/12/18 10:46:39;;;;;;;46.20;23.05;;;;;;;;;;5049219;28;20037;-64
2023/12/18 10:49:06;;;;;;;48.60;23.90;;;;;;;;;;5026801;28;20508;-64
2023/12/18 10:51:34;;;;;;;44.35;23.45;;;;;;;;;;5049760;28;20048;-64
2023/12/18 10:54:02;;;;;;;47.95;23.65;;;;;;;;;;5036230;28;20057;-64
2023/12/18 10:56:29;;;;;;;44.63;23.75;;;;;;;;;;5052186;28;20112;-64
2023/12/18 10:58:57;;;;;;;44.38;23.65;;;;;;;;;;5060729;28;20500;-64
2023/12/18 11:01:24;;;;;;;43.33;23.15;;;;;;;;;;5063621;28;20041;-64
2023/12/18 11:03:51;;;;;;;38.25;21.20;;;;;;;;;;5060005;28;20048;-64
2023/12/18 11:06:18;;;;;;;44.50;23.05;;;;;;;;;;5046751;28;20080;-64
2023/12/18 11:08:44;;;;;;;34.05;19.67;;;;;;;;;;5044567;28;20033;-64
2023/12/18 11:11:10;;;;;;;50.58;23.27;;;;;;;;;;5046243;28;20119;-64
2023/12/18 11:13:42;;;;;;;45.53;22.40;;;;;;;;;;5044851;28;20033;-64
2023/12/18 11:16:16;;;;;;;42.33;23.50;;;;;;;;;;5056476;28;20041;-64
2023/12/18 11:18:42;;;;;;;44.45;22.77;;;;;;;;;;5052295;28;20040;-64
2023/12/18 11:21:08;;;;;;;42.20;23.48;;;;;;;;;;5057801;28;20634;-64
2023/12/18 11:23:41;;;;;;;46.75;22.20;;;;;;;;;;5069336;27;20398;-62
2023/12/18 11:26:13;;;;;;;39.88;22.98;;;;;;;;;;5054352;28;20048;-63
2023/12/18 11:28:41;;;;;;;43.08;22.10;;;;;;;;;;5047826;28;20029;-63
2023/12/18 11:31:08;;;;;;;44.75;22.25;;;;;;;;;;5070356;28;20406;-63
2023/12/18 11:33:34;;;;;;;40.03;21.38;;;;;;;;;;5070180;28;20040;-63
2023/12/18 11:36:01;;;;;;;42.42;21.15;;;;;;;;;;5073630;28;20451;-62
2023/12/18 11:38:27;;;;;;;41.63;21.50;;;;;;;;;;5072402;28;20037;-63
2023/12/18 11:40:53;;;;;;;45.45;21.75;;;;;;;;;;5068738;28;20045;-63
2023/12/18 11:43:44;;;;;;;39.10;21.80;;;;;;;;;;5067383;28;20076;-63
2023/12/18 11:46:13;;;;;;;40.53;20.95;;;;;;;;;;5067013;28;20075;-63
2023/12/18 11:48:41;;;;;;;41.58;20.75;;;;;;;;;;5073484;28;20032;-63
2023/12/18 11:51:07;;;;;;;38.05;21.35;;;;;;;;;;5073135;28;20043;-63
2023/12/18 11:53:34;;;;;;;42.05;21.92;;;;;;;;;;5074888;28;20115;-63
2023/12/18 11:56:02;;;;;;;53.55;22.45;;;;;;;;;;5067620;28;20044;-63
2023/12/18 11:58:28;;;;;;;42.75;21.45;;;;;;;;;;5073577;28;20097;-63
2023/12/18 12:00:58;;;;;;;42.63;21.48;;;;;;;;;;5060498;28;20045;-63
2023/12/18 12:03:25;;;;;;;41.78;21.70;;;;;;;;;;5074208;28;20091;-63
2023/12/18 12:05:51;;;;;;;38.95;20.35;;;;;;;;;;5068654;28;20112;-64
2023/12/18 12:08:18;;;;;;;41.22;20.33;;;;;;;;;;5075575;28;20040;-63
2023/12/18 12:10:48;;;;;;;34.50;20.08;;;;;;;;;;5073080;28;20040;-63
2023/12/18 12:13:32;;;;;;;35.40;20.90;;;;;;;;;;5072573;28;20059;-63
2023/12/18 12:16:03;;;;;;;42.42;21.25;;;;;;;;;;5073647;28;20063;-63
2023/12/18 12:18:29;;;;;;;41.75;19.98;;;;;;;;;;5068379;28;20093;-63
2023/12/18 12:20:55;;;;;;;38.53;20.02;;;;;;;;;;5068740;28;20044;-63
2023/12/18 12:23:22;;;;;;;35.35;20.67;;;;;;;;;;5073927;28;20511;-64
2023/12/18 12:25:49;;;;;;;37.60;19.40;;;;;;;;;;5072572;28;20037;-64
2023/12/18 12:28:15;;;;;;;35.50;20.08;;;;;;;;;;5072404;28;20821;-63
2023/12/18 12:30:42;;;;;;;31.10;18.83;;;;;;;;;;5072019;28;20041;-63
2023/12/18 12:33:08;;;;;;;34.17;18.30;;;;;;;;;;5071249;28;20041;-63
2023/12/18 12:35:35;;;;;;;41.03;20.48;;;;;;;;;;5057066;28;20055;-64
2023/12/18 12:38:02;;;;;;;38.85;18.42;;;;;;;;;;5051802;28;20501;-63
2023/12/18 12:40:44;;;;;;;34.95;19.65;;;;;;;;;;5059908;28;20040;-63
2023/12/18 12:43:11;;;;;;;42.58;19.83;;;;;;;;;;5060993;28;20044;-63
2023/12/18 12:45:38;;;;;;;36.83;20.38;;;;;;;;;;5052957;28;20041;-63
2023/12/18 12:48:07;;;;;;;35.13;19.27;;;;;;;;;;5060918;28;20041;-63
2023/12/18 12:50:37;;;;;;;33.08;19.83;;;;;;;;;;5056750;28;20505;-63
2023/12/18 12:53:05;;;;;;;32.90;19.02;;;;;;;;;;5054952;28;20504;-64
2023/12/18 12:55:31;;;;;;;38.10;20.98;;;;;;;;;;5044592;28;20489;-64
2023/12/18 12:57:57;;;;;;;41.38;18.60;;;;;;;;;;5056450;28;20045;-63
2023/12/18 13:00:23;;;;;;;33.60;19.25;;;;;;;;;;5057565;28;20040;-64
2023/12/18 13:02:49;;;;;;;35.58;19.77;;;;;;;;;;5052604;28;20099;-63
2023/12/18 13:05:15;;;;;;;35.33;18.88;;;;;;;;;;5061062;28;20446;-63
2023/12/18 13:07:41;;;;;;;40.83;20.33;;;;;;;;;;5058953;28;20052;-64
2023/12/18 13:10:10;;;;;;;35.85;19.23;;;;;;;;;;5055387;28;20399;-64
2023/12/18 13:12:36;;;;;;;35.08;18.40;;;;;;;;;;5028697;28;20045;-64
2023/12/18 13:15:04;;;;;;;32.50;18.70;;;;;;;;;;5053997;28;20036;-63
2023/12/18 13:17:30;;;;;;;31.85;17.85;;;;;;;;;;5057733;28;20075;-63
2023/12/18 13:19:55;;;;;;;29.98;17.95;;;;;;;;;;5058247;28;20130;-63
2023/12/18 13:22:21;;;;;;;34.00;18.88;;;;;;;;;;5059667;28;20044;-63
2023/12/18 13:24:47;;;;;;;39.45;19.52;;;;;;;;;;5053785;28;20124;-63
2023/12/18 13:27:14;;;;;;;32.20;15.25;;;;;;;;;;5060500;28;20407;-63
2023/12/18 13:29:41;;;;;;;32.08;18.00;;;;;;;;;;5054710;28;20106;-63
2023/12/18 13:32:08;;;;;;;33.05;17.70;;;;;;;;;;5043608;28;20041;-63
2023/12/18 13:34:34;;;;;;;35.65;17.77;;;;;;;;;;5045844;28;20061;-63
2023/12/18 13:37:01;;;;;;;37.80;17.88;;;;;;;;;;5032728;28;20039;-64
2023/12/18 13:39:27;;;;;;;36.88;17.05;;;;;;;;;;5040350;28;20497;-63
2023/12/18 13:41:57;;;;;;;31.88;18.95;;;;;;;;;;5040143;28;20068;-64
2023/12/18 13:44:23;;;;;;;32.08;16.80;;;;;;;;;;5061121;28;20047;-64
2023/12/18 13:46:50;;;;;;;34.42;22.00;;;;;;;;;;5048938;28;20037;-64
2023/12/18 13:49:16;;;;;;;31.55;18.10;;;;;;;;;;5051237;28;20058;-64
2023/12/18 13:51:42;;;;;;;36.72;18.20;;;;;;;;;;5051492;28;20045;-63
2023/12/18 13:54:08;;;;;;;34.70;18.50;;;;;;;;;;5053984;28;20476;-64
2023/12/18 13:56:34;;;;;;;32.35;17.20;;;;;;;;;;5053093;28;20080;-64
2023/12/18 13:59:00;;;;;;;31.83;18.38;;;;;;;;;;5052609;28;20072;-64
2023/12/18 14:01:27;;;;;;;31.20;18.70;;;;;;;;;;5053258;28;20103;-64
2023/12/18 14:03:53;;;;;;;32.10;16.92;;;;;;;;;;5054082;28;20029;-64
2023/12/18 14:06:19;;;;;;;29.65;16.70;;;;;;;;;;5051554;28;20036;-63
2023/12/18 14:08:45;;;;;;;33.10;18.23;;;;;;;;;;5051378;28;20060;-64
2023/12/18 14:11:11;;;;;;;34.10;19.85;;;;;;;;;;5058353;28;20041;-64
2023/12/18 14:13:37;;;;;;;37.67;23.80;;;;;;;;;;5057773;28;20045;-64